Stevenson, Connecticut
Current Conditions -  °F | °C
As of 3:55 AM on Wednesday 26 Nov 2014 (Local Time) from KOXC Reporting Station
Overcast Overcast  
Wind Chill: 35°   Ceiling: 11000
Heat Index: 41°   Visibility: 10mi
Dew Point: 27°   Wind: 10mph
Humidity: 57%   Direction: 10°N
Pressure: 30.2"   Gusts: NA
Location:  41.38°N, 73.18°W
Report Text: KOXC 260855Z 01009KT 10SM OVC110 05/M03 A3020 RMK AO1 52017
Loading
Personal Weather Stations






























Interactive Weather Map New forecast layout! Learn more

10-Day Weather Forecast

Advertisements
Track Severe Weather on mobile